Mitchell, Georgia
Current Conditions -  °F | °C
As of 3:55 AM on Friday 24 Oct 2014 (Local Time) from KOKZ Reporting Station
Clear Clear  
Wind Chill: 44°   Ceiling: Unl
Heat Index: 44°   Visibility: 10mi
Dew Point: 44°   Wind: 0mph
Humidity: 98%   Direction: NA
Pressure: 30.05"   Gusts: NA
Location:  33.22°N, 82.7°W
Report Text: KOKZ 240755Z AUTO 00000KT 10SM CLR 07/06 A3005 RMK AO2 T00670064
Loading
Personal Weather Stations






























Interactive Weather Map
Tropical Storm Tracking
New forecast layout! Learn more

10-Day Weather Forecast

Advertisements
Track Severe Weather on mobile